sensor_id;sensor_type;location;lat;lon;timestamp;temperature;humidity
28614;DHT22;15806;53.548;9.964;2024-02-21T00:00:25;10.00;99.90
28614;DHT22;15806;53.548;9.964;2024-02-21T00:02:07;10.10;99.90
28614;DHT22;15806;53.548;9.964;2024-02-21T00:03:48;10.10;99.90
28614;DHT22;15806;53.548;9.964;2024-02-21T00:05:28;10.10;99.90
28614;DHT22;15806;53.548;9.964;2024-02-21T00:07:09;10.10;99.90
28614;DHT22;15806;53.548;9.964;2024-02-21T00:08:49;10.10;99.90
28614;DHT22;15806;53.548;9.964;2024-02-21T00:10:30;10.10;99.90
28614;DHT22;15806;53.548;9.964;2024-02-21T00:12:11;10.10;99.90
28614;DHT22;15806;53.548;9.964;2024-02-21T00:13:51;10.10;99.90
28614;DHT22;15806;53.548;9.964;2024-02-21T00:15:32;10.20;99.90
28614;DHT22;15806;53.548;9.964;2024-02-21T00:17:12;10.20;99.90
28614;DHT22;15806;53.548;9.964;2024-02-21T00:18:53;10.20;99.90
28614;DHT22;15806;53.548;9.964;2024-02-21T00:20:33;10.20;99.90
28614;DHT22;15806;53.548;9.964;2024-02-21T00:22:14;10.30;99.90
28614;DHT22;15806;53.548;9.964;2024-02-21T00:23:54;10.30;99.90
28614;DHT22;15806;53.548;9.964;2024-02-21T00:25:35;10.30;99.90
28614;DHT22;15806;53.548;9.964;2024-02-21T00:27:15;10.30;99.90
28614;DHT22;15806;53.548;9.964;2024-02-21T00:28:56;10.30;99.90
28614;DHT22;15806;53.548;9.964;2024-02-21T00:30:37;10.30;99.90
28614;DHT22;15806;53.548;9.964;2024-02-21T00:32:18;10.30;99.90
28614;DHT22;15806;53.548;9.964;2024-02-21T00:33:58;10.30;99.90
28614;DHT22;15806;53.548;9.964;2024-02-21T00:35:39;10.30;99.90
28614;DHT22;15806;53.548;9.964;2024-02-21T00:37:19;10.40;99.90
28614;DHT22;15806;53.548;9.964;2024-02-21T00:39:00;10.40;99.90
28614;DHT22;15806;53.548;9.964;2024-02-21T00:40:40;10.50;99.90
28614;DHT22;15806;53.548;9.964;2024-02-21T00:42:21;10.40;99.90
28614;DHT22;15806;53.548;9.964;2024-02-21T00:44:01;10.50;99.90
28614;DHT22;15806;53.548;9.964;2024-02-21T00:45:42;10.40;99.90
28614;DHT22;15806;53.548;9.964;2024-02-21T00:47:22;10.40;99.90
28614;DHT22;15806;53.548;9.964;2024-02-21T00:49:03;10.40;99.90
28614;DHT22;15806;53.548;9.964;2024-02-21T00:50:43;10.50;99.90
28614;DHT22;15806;53.548;9.964;2024-02-21T00:52:24;10.50;99.90
28614;DHT22;15806;53.548;9.964;2024-02-21T00:54:04;10.50;99.90
28614;DHT22;15806;53.548;9.964;2024-02-21T00:55:45;10.50;99.90
28614;DHT22;15806;53.548;9.964;2024-02-21T00:57:26;10.50;99.90
28614;DHT22;15806;53.548;9.964;2024-02-21T00:59:06;10.50;99.90
28614;DHT22;15806;53.548;9.964;2024-02-21T01:00:47;10.50;99.90
28614;DHT22;15806;53.548;9.964;2024-02-21T01:02:27;10.50;99.90
28614;DHT22;15806;53.548;9.964;2024-02-21T01:04:09;10.50;99.90
28614;DHT22;15806;53.548;9.964;2024-02-21T01:05:49;10.50;99.90
28614;DHT22;15806;53.548;9.964;2024-02-21T01:07:30;10.50;99.90
28614;DHT22;15806;53.548;9.964;2024-02-21T01:09:11;10.60;99.90
28614;DHT22;15806;53.548;9.964;2024-02-21T01:10:52;10.60;99.90
28614;DHT22;15806;53.548;9.964;2024-02-21T01:12:32;10.60;99.90
28614;DHT22;15806;53.548;9.964;2024-02-21T01:14:13;10.60;99.90
28614;DHT22;15806;53.548;9.964;2024-02-21T01:15:53;10.50;99.90
28614;DHT22;15806;53.548;9.964;2024-02-21T01:17:34;10.60;99.90
28614;DHT22;15806;53.548;9.964;2024-02-21T01:19:14;10.50;99.90
28614;DHT22;15806;53.548;9.964;2024-02-21T01:20:58;10.60;99.90
28614;DHT22;15806;53.548;9.964;2024-02-21T01:22:40;10.60;99.90
28614;DHT22;15806;53.548;9.964;2024-02-21T01:24:20;10.60;99.90
28614;DHT22;15806;53.548;9.964;2024-02-21T01:26:01;10.60;99.90
28614;DHT22;15806;53.548;9.964;2024-02-21T01:27:42;10.60;99.90
28614;DHT22;15806;53.548;9.964;2024-02-21T01:29:23;10.60;99.90
28614;DHT22;15806;53.548;9.964;2024-02-21T01:31:03;10.60;99.90
28614;DHT22;15806;53.548;9.964;2024-02-21T01:32:44;10.70;99.90
28614;DHT22;15806;53.548;9.964;2024-02-21T01:34:24;10.70;99.90
28614;DHT22;15806;53.548;9.964;2024-02-21T01:36:06;10.70;99.90
28614;DHT22;15806;53.548;9.964;2024-02-21T01:37:47;10.70;99.90
28614;DHT22;15806;53.548;9.964;2024-02-21T01:39:27;10.70;99.90
28614;DHT22;15806;53.548;9.964;2024-02-21T01:41:08;10.80;99.90
28614;DHT22;15806;53.548;9.964;2024-02-21T01:42:48;10.80;99.90
28614;DHT22;15806;53.548;9.964;2024-02-21T01:44:29;10.80;99.90
28614;DHT22;15806;53.548;9.964;2024-02-21T01:46:09;10.90;99.90
28614;DHT22;15806;53.548;9.964;2024-02-21T01:47:50;11.00;99.90
28614;DHT22;15806;53.548;9.964;2024-02-21T01:49:31;11.10;99.90
28614;DHT22;15806;53.548;9.964;2024-02-21T01:51:12;11.30;99.90
28614;DHT22;15806;53.548;9.964;2024-02-21T01:52:54;11.30;99.90
28614;DHT22;15806;53.548;9.964;2024-02-21T01:54:34;11.50;99.90
28614;DHT22;15806;53.548;9.964;2024-02-21T01:56:15;11.60;99.90
28614;DHT22;15806;53.548;9.964;2024-02-21T01:57:56;11.60;99.90
28614;DHT22;15806;53.548;9.964;2024-02-21T01:59:37;11.80;99.90
28614;DHT22;15806;53.548;9.964;2024-02-21T02:01:18;12.10;99.90
28614;DHT22;15806;53.548;9.964;2024-02-21T02:03:00;12.40;99.90
28614;DHT22;15806;53.548;9.964;2024-02-21T02:04:40;12.50;99.90
28614;DHT22;15806;53.548;9.964;2024-02-21T02:06:21;12.50;99.90
28614;DHT22;15806;53.548;9.964;2024-02-21T02:08:02;12.50;99.90
28614;DHT22;15806;53.548;9.964;2024-02-21T02:09:42;13.00;99.90
28614;DHT22;15806;53.548;9.964;2024-02-21T02:11:24;13.10;99.90
28614;DHT22;15806;53.548;9.964;2024-02-21T02:13:04;12.90;99.90
28614;DHT22;15806;53.548;9.964;2024-02-21T02:14:45;13.10;99.90
28614;DHT22;15806;53.548;9.964;2024-02-21T02:16:26;13.40;99.90
28614;DHT22;15806;53.548;9.964;2024-02-21T02:18:06;13.40;99.90
28614;DHT22;15806;53.548;9.964;2024-02-21T02:19:47;13.30;99.90
28614;DHT22;15806;53.548;9.964;2024-02-21T02:21:32;13.70;99.90
28614;DHT22;15806;53.548;9.964;2024-02-21T02:23:23;13.90;99.90
28614;DHT22;15806;53.548;9.964;2024-02-21T02:25:04;13.80;99.90
28614;DHT22;15806;53.548;9.964;2024-02-21T02:26:45;13.90;99.90
28614;DHT22;15806;53.548;9.964;2024-02-21T02:28:25;14.20;99.90
28614;DHT22;15806;53.548;9.964;2024-02-21T02:30:06;14.10;99.90
28614;DHT22;15806;53.548;9.964;2024-02-21T02:31:49;13.80;99.90
28614;DHT22;15806;53.548;9.964;2024-02-21T02:33:29;13.80;99.90
28614;DHT22;15806;53.548;9.964;2024-02-21T02:35:10;13.90;99.90
28614;DHT22;15806;53.548;9.964;2024-02-21T02:36:50;13.90;99.90
28614;DHT22;15806;53.548;9.964;2024-02-21T02:38:31;13.80;99.90
28614;DHT22;15806;53.548;9.964;2024-02-21T02:40:12;13.90;99.90
28614;DHT22;15806;53.548;9.964;2024-02-21T02:41:52;13.90;99.90
28614;DHT22;15806;53.548;9.964;2024-02-21T02:43:33;13.70;99.90
28614;DHT22;15806;53.548;9.964;2024-02-21T02:45:13;13.70;99.90
28614;DHT22;15806;53.548;9.964;2024-02-21T02:46:54;13.60;99.90
28614;DHT22;15806;53.548;9.964;2024-02-21T02:48:34;13.60;99.90
28614;DHT22;15806;53.548;9.964;2024-02-21T02:50:15;13.40;99.90
28614;DHT22;15806;53.548;9.964;2024-02-21T02:51:57;13.40;99.90
28614;DHT22;15806;53.548;9.964;2024-02-21T02:53:37;13.20;99.90
28614;DHT22;15806;53.548;9.964;2024-02-21T02:55:18;13.20;99.90
28614;DHT22;15806;53.548;9.964;2024-02-21T02:56:58;13.10;99.90
28614;DHT22;15806;53.548;9.964;2024-02-21T02:58:40;13.00;99.90
28614;DHT22;15806;53.548;9.964;2024-02-21T03:00:21;12.90;99.90
28614;DHT22;15806;53.548;9.964;2024-02-21T03:02:02;12.80;99.90
28614;DHT22;15806;53.548;9.964;2024-02-21T03:03:42;12.80;99.90
28614;DHT22;15806;53.548;9.964;2024-02-21T03:05:23;12.70;99.90
28614;DHT22;15806;53.548;9.964;2024-02-21T03:07:04;12.60;99.90
28614;DHT22;15806;53.548;9.964;2024-02-21T03:08:44;12.50;99.90
28614;DHT22;15806;53.548;9.964;2024-02-21T03:10:25;12.40;99.90
28614;DHT22;15806;53.548;9.964;2024-02-21T03:12:06;12.40;99.90
28614;DHT22;15806;53.548;9.964;2024-02-21T03:13:46;12.20;99.90
28614;DHT22;15806;53.548;9.964;2024-02-21T03:15:27;12.10;99.90
28614;DHT22;15806;53.548;9.964;2024-02-21T03:17:07;12.10;99.90
28614;DHT22;15806;53.548;9.964;2024-02-21T03:18:48;12.00;99.90
28614;DHT22;15806;53.548;9.964;2024-02-21T03:20:28;11.90;99.90
28614;DHT22;15806;53.548;9.964;2024-02-21T03:22:09;11.80;99.90
28614;DHT22;15806;53.548;9.964;2024-02-21T03:23:49;11.80;99.90
28614;DHT22;15806;53.548;9.964;2024-02-21T03:25:30;11.80;99.90
28614;DHT22;15806;53.548;9.964;2024-02-21T03:27:10;11.70;99.90
28614;DHT22;15806;53.548;9.964;2024-02-21T03:28:51;11.70;99.90
28614;DHT22;15806;53.548;9.964;2024-02-21T03:30:31;11.60;99.90
28614;DHT22;15806;53.548;9.964;2024-02-21T03:32:12;11.60;99.90
28614;DHT22;15806;53.548;9.964;2024-02-21T03:33:52;11.50;99.90
28614;DHT22;15806;53.548;9.964;2024-02-21T03:35:33;11.50;99.90
28614;DHT22;15806;53.548;9.964;2024-02-21T03:37:14;11.50;99.90
28614;DHT22;15806;53.548;9.964;2024-02-21T03:38:55;11.40;99.90
28614;DHT22;15806;53.548;9.964;2024-02-21T03:40:35;11.40;99.90
28614;DHT22;15806;53.548;9.964;2024-02-21T03:42:16;11.40;99.90
28614;DHT22;15806;53.548;9.964;2024-02-21T03:43:56;11.40;99.90
28614;DHT22;15806;53.548;9.964;2024-02-21T03:45:37;11.40;99.90
28614;DHT22;15806;53.548;9.964;2024-02-21T03:47:17;11.30;99.90
28614;DHT22;15806;53.548;9.964;2024-02-21T03:48:58;11.30;99.90
28614;DHT22;15806;53.548;9.964;2024-02-21T03:50:38;11.30;99.90
28614;DHT22;15806;53.548;9.964;2024-02-21T03:52:19;11.30;99.90
28614;DHT22;15806;53.548;9.964;2024-02-21T03:54:00;11.30;99.90
28614;DHT22;15806;53.548;9.964;2024-02-21T03:55:40;11.40;99.90
28614;DHT22;15806;53.548;9.964;2024-02-21T03:57:21;11.30;99.90
28614;DHT22;15806;53.548;9.964;2024-02-21T03:59:01;11.40;99.90
28614;DHT22;15806;53.548;9.964;2024-02-21T04:00:42;11.40;99.90
28614;DHT22;15806;53.548;9.964;2024-02-21T04:02:22;11.40;99.90
28614;DHT22;15806;53.548;9.964;2024-02-21T04:04:03;11.50;99.90
28614;DHT22;15806;53.548;9.964;2024-02-21T04:05:43;11.50;99.90
28614;DHT22;15806;53.548;9.964;2024-02-21T04:07:24;11.70;99.90
28614;DHT22;15806;53.548;9.964;2024-02-21T04:09:04;11.80;99.90
28614;DHT22;15806;53.548;9.964;2024-02-21T04:10:45;11.80;99.90
28614;DHT22;15806;53.548;9.964;2024-02-21T04:12:25;11.80;99.90
28614;DHT22;15806;53.548;9.964;2024-02-21T04:14:06;12.10;99.90
28614;DHT22;15806;53.548;9.964;2024-02-21T04:15:46;12.10;99.90
28614;DHT22;15806;53.548;9.964;2024-02-21T04:17:27;12.10;99.90
28614;DHT22;15806;53.548;9.964;2024-02-21T04:19:07;12.40;99.90
28614;DHT22;15806;53.548;9.964;2024-02-21T04:20:48;12.50;99.90
28614;DHT22;15806;53.548;9.964;2024-02-21T04:22:29;12.40;99.90
28614;DHT22;15806;53.548;9.964;2024-02-21T04:24:09;12.60;99.90
28614;DHT22;15806;53.548;9.964;2024-02-21T04:25:50;12.50;99.90
28614;DHT22;15806;53.548;9.964;2024-02-21T04:27:30;12.70;99.90
28614;DHT22;15806;53.548;9.964;2024-02-21T04:29:11;12.80;99.90
28614;DHT22;15806;53.548;9.964;2024-02-21T04:30:51;12.80;99.90
28614;DHT22;15806;53.548;9.964;2024-02-21T04:32:32;13.00;99.90
28614;DHT22;15806;53.548;9.964;2024-02-21T04:34:12;12.90;99.90
28614;DHT22;15806;53.548;9.964;2024-02-21T04:35:53;13.00;99.90
28614;DHT22;15806;53.548;9.964;2024-02-21T04:37:33;13.10;99.90
28614;DHT22;15806;53.548;9.964;2024-02-21T04:39:14;13.10;99.90
28614;DHT22;15806;53.548;9.964;2024-02-21T04:40:55;13.30;99.90
28614;DHT22;15806;53.548;9.964;2024-02-21T04:42:36;13.40;99.90
28614;DHT22;15806;53.548;9.964;2024-02-21T04:44:16;13.20;99.90
28614;DHT22;15806;53.548;9.964;2024-02-21T04:45:57;13.50;99.90
28614;DHT22;15806;53.548;9.964;2024-02-21T04:47:37;13.40;99.90
28614;DHT22;15806;53.548;9.964;2024-02-21T04:49:18;13.60;99.90
28614;DHT22;15806;53.548;9.964;2024-02-21T04:50:59;13.70;99.90
28614;DHT22;15806;53.548;9.964;2024-02-21T04:52:39;13.70;99.90
28614;DHT22;15806;53.548;9.964;2024-02-21T04:54:20;13.80;99.90
28614;DHT22;15806;53.548;9.964;2024-02-21T04:56:00;13.80;99.90
28614;DHT22;15806;53.548;9.964;2024-02-21T04:57:41;14.00;99.90
28614;DHT22;15806;53.548;9.964;2024-02-21T04:59:21;13.90;99.90
28614;DHT22;15806;53.548;9.964;2024-02-21T05:01:02;14.20;99.90
28614;DHT22;15806;53.548;9.964;2024-02-21T05:02:42;14.40;99.90
28614;DHT22;15806;53.548;9.964;2024-02-21T05:04:23;14.50;99.90
28614;DHT22;15806;53.548;9.964;2024-02-21T05:06:04;14.50;99.90
28614;DHT22;15806;53.548;9.964;2024-02-21T05:07:44;14.70;99.90
28614;DHT22;15806;53.548;9.964;2024-02-21T05:09:24;14.70;99.90
28614;DHT22;15806;53.548;9.964;2024-02-21T05:11:05;14.30;99.90
28614;DHT22;15806;53.548;9.964;2024-02-21T05:12:45;14.40;99.90
28614;DHT22;15806;53.548;9.964;2024-02-21T05:14:26;14.70;99.90
28614;DHT22;15806;53.548;9.964;2024-02-21T05:16:07;14.40;99.90
28614;DHT22;15806;53.548;9.964;2024-02-21T05:17:47;14.90;99.90
28614;DHT22;15806;53.548;9.964;2024-02-21T05:19:28;14.50;99.90
28614;DHT22;15806;53.548;9.964;2024-02-21T05:21:10;15.10;99.90
28614;DHT22;15806;53.548;9.964;2024-02-21T05:22:50;14.50;99.90
28614;DHT22;15806;53.548;9.964;2024-02-21T05:24:30;15.10;99.90
28614;DHT22;15806;53.548;9.964;2024-02-21T05:26:11;14.60;99.90
28614;DHT22;15806;53.548;9.964;2024-02-21T05:27:51;15.00;99.90
28614;DHT22;15806;53.548;9.964;2024-02-21T05:29:33;14.90;99.90
28614;DHT22;15806;53.548;9.964;2024-02-21T05:31:13;14.90;99.90
28614;DHT22;15806;53.548;9.964;2024-02-21T05:32:54;15.00;99.90
28614;DHT22;15806;53.548;9.964;2024-02-21T05:34:34;15.30;99.90
28614;DHT22;15806;53.548;9.964;2024-02-21T05:36:15;15.30;99.90
28614;DHT22;15806;53.548;9.964;2024-02-21T05:37:55;14.60;99.90
28614;DHT22;15806;53.548;9.964;2024-02-21T05:39:36;14.90;99.90
28614;DHT22;15806;53.548;9.964;2024-02-21T05:41:16;15.00;99.90
28614;DHT22;15806;53.548;9.964;2024-02-21T05:42:57;15.30;99.90
28614;DHT22;15806;53.548;9.964;2024-02-21T05:44:37;14.90;99.90
28614;DHT22;15806;53.548;9.964;2024-02-21T05:46:21;15.00;99.90
28614;DHT22;15806;53.548;9.964;2024-02-21T05:48:03;15.40;99.90
28614;DHT22;15806;53.548;9.964;2024-02-21T05:49:43;14.80;99.90
28614;DHT22;15806;53.548;9.964;2024-02-21T05:51:24;15.40;99.90
28614;DHT22;15806;53.548;9.964;2024-02-21T05:53:04;15.10;99.90
28614;DHT22;15806;53.548;9.964;2024-02-21T05:54:45;15.10;99.90
28614;DHT22;15806;53.548;9.964;2024-02-21T05:56:26;15.00;99.90
28614;DHT22;15806;53.548;9.964;2024-02-21T05:58:06;15.60;99.90
28614;DHT22;15806;53.548;9.964;2024-02-21T05:59:47;15.30;99.90
28614;DHT22;15806;53.548;9.964;2024-02-21T06:01:28;15.00;99.90
28614;DHT22;15806;53.548;9.964;2024-02-21T06:03:08;15.50;99.90
28614;DHT22;15806;53.548;9.964;2024-02-21T06:04:49;15.00;99.90
28614;DHT22;15806;53.548;9.964;2024-02-21T06:06:29;15.20;99.90
28614;DHT22;15806;53.548;9.964;2024-02-21T06:08:10;15.00;99.90
28614;DHT22;15806;53.548;9.964;2024-02-21T06:09:50;15.70;99.90
28614;DHT22;15806;53.548;9.964;2024-02-21T06:11:31;15.40;99.90
28614;DHT22;15806;53.548;9.964;2024-02-21T06:13:11;15.50;99.90
28614;DHT22;15806;53.548;9.964;2024-02-21T06:14:52;15.80;99.90
28614;DHT22;15806;53.548;9.964;2024-02-21T06:16:33;15.60;99.90
28614;DHT22;15806;53.548;9.964;2024-02-21T06:18:13;15.60;99.90
28614;DHT22;15806;53.548;9.964;2024-02-21T06:19:54;15.30;99.90
28614;DHT22;15806;53.548;9.964;2024-02-21T06:21:34;16.00;99.90
28614;DHT22;15806;53.548;9.964;2024-02-21T06:23:16;15.90;99.90
28614;DHT22;15806;53.548;9.964;2024-02-21T06:24:56;15.70;99.90
28614;DHT22;15806;53.548;9.964;2024-02-21T06:26:37;15.70;99.90
28614;DHT22;15806;53.548;9.964;2024-02-21T06:28:17;15.90;99.90
28614;DHT22;15806;53.548;9.964;2024-02-21T06:29:58;16.00;99.90
28614;DHT22;15806;53.548;9.964;2024-02-21T06:31:39;15.80;99.90
28614;DHT22;15806;53.548;9.964;2024-02-21T06:33:20;15.90;99.90
28614;DHT22;15806;53.548;9.964;2024-02-21T06:35:00;16.10;99.90
28614;DHT22;15806;53.548;9.964;2024-02-21T06:36:41;15.40;99.90
28614;DHT22;15806;53.548;9.964;2024-02-21T06:38:21;15.60;99.90
28614;DHT22;15806;53.548;9.964;2024-02-21T06:40:02;15.50;99.90
28614;DHT22;15806;53.548;9.964;2024-02-21T06:41:43;15.70;99.90
28614;DHT22;15806;53.548;9.964;2024-02-21T06:43:23;16.20;99.90
28614;DHT22;15806;53.548;9.964;2024-02-21T06:45:04;16.20;99.90
28614;DHT22;15806;53.548;9.964;2024-02-21T06:46:45;16.20;99.90
28614;DHT22;15806;53.548;9.964;2024-02-21T06:48:25;15.80;99.90
28614;DHT22;15806;53.548;9.964;2024-02-21T06:50:06;15.70;99.90
28614;DHT22;15806;53.548;9.964;2024-02-21T06:51:47;15.80;99.90
28614;DHT22;15806;53.548;9.964;2024-02-21T06:53:27;16.50;99.90
28614;DHT22;15806;53.548;9.964;2024-02-21T06:55:08;15.50;99.90
28614;DHT22;15806;53.548;9.964;2024-02-21T06:56:48;16.40;99.90
28614;DHT22;15806;53.548;9.964;2024-02-21T06:58:29;15.90;99.90
28614;DHT22;15806;53.548;9.964;2024-02-21T07:00:12;16.60;99.90
28614;DHT22;15806;53.548;9.964;2024-02-21T07:01:54;16.20;99.90
28614;DHT22;15806;53.548;9.964;2024-02-21T07:03:35;16.00;99.90
28614;DHT22;15806;53.548;9.964;2024-02-21T07:05:15;15.70;99.90
28614;DHT22;15806;53.548;9.964;2024-02-21T07:06:56;16.10;99.90
28614;DHT22;15806;53.548;9.964;2024-02-21T07:08:36;16.00;99.90
28614;DHT22;15806;53.548;9.964;2024-02-21T07:10:17;16.60;99.90
28614;DHT22;15806;53.548;9.964;2024-02-21T07:12:00;15.70;99.90
28614;DHT22;15806;53.548;9.964;2024-02-21T07:13:41;16.60;99.90
28614;DHT22;15806;53.548;9.964;2024-02-21T07:15:21;16.20;99.90
28614;DHT22;15806;53.548;9.964;2024-02-21T07:17:02;16.40;99.90
28614;DHT22;15806;53.548;9.964;2024-02-21T07:18:42;15.80;99.90
28614;DHT22;15806;53.548;9.964;2024-02-21T07:20:23;15.80;99.90
28614;DHT22;15806;53.548;9.964;2024-02-21T07:22:04;16.50;99.90
28614;DHT22;15806;53.548;9.964;2024-02-21T07:23:44;15.80;99.90
28614;DHT22;15806;53.548;9.964;2024-02-21T07:25:25;16.70;99.90
28614;DHT22;15806;53.548;9.964;2024-02-21T07:27:05;16.60;99.90
28614;DHT22;15806;53.548;9.964;2024-02-21T07:28:46;16.80;99.90
28614;DHT22;15806;53.548;9.964;2024-02-21T07:30:26;16.70;99.90
28614;DHT22;15806;53.548;9.964;2024-02-21T07:32:07;16.80;99.90
28614;DHT22;15806;53.548;9.964;2024-02-21T07:33:47;16.20;99.90
28614;DHT22;15806;53.548;9.964;2024-02-21T07:35:28;16.40;99.90
28614;DHT22;15806;53.548;9.964;2024-02-21T07:37:08;15.80;99.90
28614;DHT22;15806;53.548;9.964;2024-02-21T07:38:49;16.70;99.90
28614;DHT22;15806;53.548;9.964;2024-02-21T07:40:29;16.60;99.90
28614;DHT22;15806;53.548;9.964;2024-02-21T07:42:10;16.20;99.90
28614;DHT22;15806;53.548;9.964;2024-02-21T07:43:50;16.50;99.90
28614;DHT22;15806;53.548;9.964;2024-02-21T07:45:31;16.60;99.90
28614;DHT22;15806;53.548;9.964;2024-02-21T07:47:12;16.60;99.90
28614;DHT22;15806;53.548;9.964;2024-02-21T07:48:52;16.20;99.90
28614;DHT22;15806;53.548;9.964;2024-02-21T07:50:33;16.00;99.90
28614;DHT22;15806;53.548;9.964;2024-02-21T07:52:13;16.20;99.90
28614;DHT22;15806;53.548;9.964;2024-02-21T07:53:54;16.40;99.90
28614;DHT22;15806;53.548;9.964;2024-02-21T07:55:34;15.90;99.90
28614;DHT22;15806;53.548;9.964;2024-02-21T07:57:15;16.80;99.90
28614;DHT22;15806;53.548;9.964;2024-02-21T07:58:55;16.80;99.90
28614;DHT22;15806;53.548;9.964;2024-02-21T08:00:36;16.20;99.90
28614;DHT22;15806;53.548;9.964;2024-02-21T08:02:16;16.50;99.90
28614;DHT22;15806;53.548;9.964;2024-02-21T08:03:57;16.50;99.90
28614;DHT22;15806;53.548;9.964;2024-02-21T08:05:37;16.50;99.90
28614;DHT22;15806;53.548;9.964;2024-02-21T08:07:18;16.40;99.90
28614;DHT22;15806;53.548;9.964;2024-02-21T08:08:58;16.80;99.90
28614;DHT22;15806;53.548;9.964;2024-02-21T08:10:39;16.80;99.90
28614;DHT22;15806;53.548;9.964;2024-02-21T08:12:20;16.70;99.90
28614;DHT22;15806;53.548;9.964;2024-02-21T08:14:01;16.70;99.90
28614;DHT22;15806;53.548;9.964;2024-02-21T08:15:42;16.10;99.90
28614;DHT22;15806;53.548;9.964;2024-02-21T08:17:22;16.10;99.90
28614;DHT22;15806;53.548;9.964;2024-02-21T08:19:03;16.00;99.90
28614;DHT22;15806;53.548;9.964;2024-02-21T08:20:43;16.10;99.90
28614;DHT22;15806;53.548;9.964;2024-02-21T08:22:24;16.70;99.90
28614;DHT22;15806;53.548;9.964;2024-02-21T08:24:04;16.60;99.90
28614;DHT22;15806;53.548;9.964;2024-02-21T08:25:45;16.30;99.90
28614;DHT22;15806;53.548;9.964;2024-02-21T08:27:26;16.50;99.90
28614;DHT22;15806;53.548;9.964;2024-02-21T08:29:06;16.40;99.90
28614;DHT22;15806;53.548;9.964;2024-02-21T08:30:47;16.50;99.90
28614;DHT22;15806;53.548;9.964;2024-02-21T08:32:28;16.50;99.90
28614;DHT22;15806;53.548;9.964;2024-02-21T08:34:09;16.00;99.90
28614;DHT22;15806;53.548;9.964;2024-02-21T08:35:51;16.40;99.90
28614;DHT22;15806;53.548;9.964;2024-02-21T08:37:31;15.80;99.90
28614;DHT22;15806;53.548;9.964;2024-02-21T08:39:12;16.10;99.90
28614;DHT22;15806;53.548;9.964;2024-02-21T08:40:52;15.90;99.90
28614;DHT22;15806;53.548;9.964;2024-02-21T08:42:34;16.50;99.90
28614;DHT22;15806;53.548;9.964;2024-02-21T08:44:15;16.20;99.90
28614;DHT22;15806;53.548;9.964;2024-02-21T08:45:55;16.40;99.90
28614;DHT22;15806;53.548;9.964;2024-02-21T08:47:38;16.30;99.90
28614;DHT22;15806;53.548;9.964;2024-02-21T08:49:19;16.30;99.90
28614;DHT22;15806;53.548;9.964;2024-02-21T08:51:00;16.10;99.90
28614;DHT22;15806;53.548;9.964;2024-02-21T08:52:40;16.30;99.90
28614;DHT22;15806;53.548;9.964;2024-02-21T08:54:21;16.00;99.90
28614;DHT22;15806;53.548;9.964;2024-02-21T08:56:01;16.30;99.90
28614;DHT22;15806;53.548;9.964;2024-02-21T08:57:42;15.90;99.90
28614;DHT22;15806;53.548;9.964;2024-02-21T08:59:22;15.80;99.90
28614;DHT22;15806;53.548;9.964;2024-02-21T09:01:03;16.40;99.90
28614;DHT22;15806;53.548;9.964;2024-02-21T09:02:44;16.20;99.90
28614;DHT22;15806;53.548;9.964;2024-02-21T09:04:24;16.00;99.90
28614;DHT22;15806;53.548;9.964;2024-02-21T09:06:05;15.50;99.90
28614;DHT22;15806;53.548;9.964;2024-02-21T09:07:46;16.30;99.90
28614;DHT22;15806;53.548;9.964;2024-02-21T09:09:27;15.60;99.90
28614;DHT22;15806;53.548;9.964;2024-02-21T09:11:08;15.50;99.90
28614;DHT22;15806;53.548;9.964;2024-02-21T09:12:49;16.20;99.90
28614;DHT22;15806;53.548;9.964;2024-02-21T09:14:29;16.30;99.90
28614;DHT22;15806;53.548;9.964;2024-02-21T09:16:10;15.80;99.90
28614;DHT22;15806;53.548;9.964;2024-02-21T09:17:50;16.20;99.90
28614;DHT22;15806;53.548;9.964;2024-02-21T09:19:31;16.20;99.90
28614;DHT22;15806;53.548;9.964;2024-02-21T09:21:11;16.00;99.90
28614;DHT22;15806;53.548;9.964;2024-02-21T09:22:52;15.40;99.90
28614;DHT22;15806;53.548;9.964;2024-02-21T09:24:33;16.00;99.90
28614;DHT22;15806;53.548;9.964;2024-02-21T09:26:13;15.40;99.90
28614;DHT22;15806;53.548;9.964;2024-02-21T09:27:54;16.20;99.90
28614;DHT22;15806;53.548;9.964;2024-02-21T09:29:35;15.30;99.90
28614;DHT22;15806;53.548;9.964;2024-02-21T09:31:15;16.20;99.90
28614;DHT22;15806;53.548;9.964;2024-02-21T09:32:56;15.90;99.90
28614;DHT22;15806;53.548;9.964;2024-02-21T09:34:36;15.80;99.90
28614;DHT22;15806;53.548;9.964;2024-02-21T09:36:17;15.80;99.90
28614;DHT22;15806;53.548;9.964;2024-02-21T09:37:57;16.00;99.90
28614;DHT22;15806;53.548;9.964;2024-02-21T09:39:38;15.30;99.90
28614;DHT22;15806;53.548;9.964;2024-02-21T09:41:26;15.50;99.90
28614;DHT22;15806;53.548;9.964;2024-02-21T09:43:06;15.10;99.90
28614;DHT22;15806;53.548;9.964;2024-02-21T09:44:47;15.50;99.90
28614;DHT22;15806;53.548;9.964;2024-02-21T09:46:45;15.20;99.90
28614;DHT22;15806;53.548;9.964;2024-02-21T09:48:42;15.80;99.90
28614;DHT22;15806;53.548;9.964;2024-02-21T09:50:28;15.10;99.90
28614;DHT22;15806;53.548;9.964;2024-02-21T09:52:10;15.50;99.90
28614;DHT22;15806;53.548;9.964;2024-02-21T09:53:53;15.90;99.90
28614;DHT22;15806;53.548;9.964;2024-02-21T09:55:35;15.10;99.90
28614;DHT22;15806;53.548;9.964;2024-02-21T09:57:15;15.80;99.90
28614;DHT22;15806;53.548;9.964;2024-02-21T09:58:57;15.30;99.90
28614;DHT22;15806;53.548;9.964;2024-02-21T10:00:37;15.20;99.90
28614;DHT22;15806;53.548;9.964;2024-02-21T10:02:18;16.00;99.90
28614;DHT22;15806;53.548;9.964;2024-02-21T10:03:59;16.10;99.90
28614;DHT22;15806;53.548;9.964;2024-02-21T10:05:47;15.80;99.90
28614;DHT22;15806;53.548;9.964;2024-02-21T10:07:28;16.40;99.90
28614;DHT22;15806;53.548;9.964;2024-02-21T10:09:08;16.00;99.90
28614;DHT22;15806;53.548;9.964;2024-02-21T10:10:49;16.40;99.90
28614;DHT22;15806;53.548;9.964;2024-02-21T10:12:29;15.80;99.90
28614;DHT22;15806;53.548;9.964;2024-02-21T10:14:10;16.60;99.90
28614;DHT22;15806;53.548;9.964;2024-02-21T10:16:01;16.50;99.90
28614;DHT22;15806;53.548;9.964;2024-02-21T10:17:41;16.40;99.90
28614;DHT22;15806;53.548;9.964;2024-02-21T10:19:22;16.80;99.90
28614;DHT22;15806;53.548;9.964;2024-02-21T10:21:07;16.30;99.90
28614;DHT22;15806;53.548;9.964;2024-02-21T10:22:48;16.50;99.90
28614;DHT22;15806;53.548;9.964;2024-02-21T10:24:28;16.70;99.90
28614;DHT22;15806;53.548;9.964;2024-02-21T10:26:09;16.80;99.90
28614;DHT22;15806;53.548;9.964;2024-02-21T10:27:50;16.70;99.90
28614;DHT22;15806;53.548;9.964;2024-02-21T10:29:31;16.80;99.90
28614;DHT22;15806;53.548;9.964;2024-02-21T10:31:21;16.10;99.90
28614;DHT22;15806;53.548;9.964;2024-02-21T10:33:02;16.30;99.90
28614;DHT22;15806;53.548;9.964;2024-02-21T10:34:43;16.60;99.90
28614;DHT22;15806;53.548;9.964;2024-02-21T10:36:24;16.50;99.90